^^
LKKV - Karlovy Vary, Czech Republic
Entfernung von Station: O 36km
Aktualisierung: 20.09.2017 03:00
Klar
Klar
 Wind von calm
Wind: Windstill
Temperatur: 7°C
Taupunkt: 6°C
Luftfeuchte: 93%
Luftdruck: 1018 hPa
Zusammenfassung: Klar
Sicht: mehr als 10 km
2017/09/20 01:00 LKKV 200100Z 00000KT CAVOK 07/06 Q1018
EDQM - Hof, Germany
Entfernung von Station: W 40km
Aktualisierung: 19.09.2017 19:50
nicht aktuell
Klar
Klar
 Wind von WNW
Wind: WNW 7 km/h
Temperatur: 9°C
Windkühle: 8°C
Taupunkt: 6°C
Luftfeuchte: 82%
Luftdruck: 1018 hPa
Zusammenfassung: Klar
Sicht: mehr als 10 km
2017/09/19 17:50 EDQM 191750Z 29004KT CAVOK 09/06 Q1018
 
ETIC - Grafenwoehr, Germany
Entfernung von Station: SSW 72km
Aktualisierung: 20.09.2017 03:56
Bedeckt
Bedeckt
 Wind von calm
Wind: Windstill
Temperatur: 6°C
Taupunkt: 6°C
Luftfeuchte: 100%
Luftdruck: 1018.6 hPa
Wolken: Bedeckt
Sicht: 10 km
Wolken Details: Bedeckt 2591 m
2017/09/20 01:56 ETIC 200156Z AUTO 00000KT 9999 OVC085 06/06 A3008 RMK AO2 SLP192 T00610060 $
EDAC - Altenburg-Nobitz, Germany
Entfernung von Station: N 80km
Aktualisierung: 19.09.2017 19:50
nicht aktuell
stark bewölkt
stark bewölkt
 Wind von O
Wind: O 2 km/h
Temperatur: 12°C
Taupunkt: 9°C
Luftfeuchte: 82%
Luftdruck: 1017 hPa
Wolken: stark bewölkt
Sicht: 10 km
Wolken Details: wolkig 1372 m
stark bewölkt 2621 m
2017/09/19 17:50 EDAC 191750Z 09001KT 9999 SCT045 BKN086 12/09 Q1017
 
LKLN - Plzen Line, Czech Republic
Entfernung von Station: SO 88km
Aktualisierung: 20.09.2017 03:00
Bedeckt
Bedeckt
 Wind von S
Wind: S 4 km/h
Temperatur: 8°C
Taupunkt: 7°C
Luftfeuchte: 93%
Luftdruck: 1018 hPa
Wolken: Bedeckt
Sicht: 10 km
Wolken Details: wolkig 1707 m
wolkig 2012 m
Bedeckt 2652 m
2017/09/20 01:00 LKLN 200100Z AUTO 19002KT 9999 SCT056 SCT066 OVC087 08/07 Q1018
ETIH - Hohenfels (usa-A, Germany
Entfernung von Station: SSW 124km
Aktualisierung: 20.09.2017 03:56
stark bewölkt
stark bewölkt
 Wind von NW
Wind: NW 7 km/h
Temperatur: 6°C
Windkühle: 4°C
Taupunkt: 6°C
Luftfeuchte: 100%
Luftdruck: 1019.3 hPa
Wolken: stark bewölkt
Sicht: 10 km
Wolken Details: stark bewölkt 2438 m
2017/09/20 01:56 ETIH 200156Z AUTO 32004KT 9999 BKN080 06/06 A3010 RMK AO2 SLP201 T00600059 $
 
EDDE - Erfurt/Bindersleben, Germany
Entfernung von Station: NW 129km
Aktualisierung: 20.09.2017 03:50
flacher Nebel, teilweise wolkig
flacher Nebel, teilweise wolkig
 Wind von W
Wind: W 15 km/h
Temperatur: 7°C
Windkühle: 4°C
Taupunkt: 7°C
Luftfeuchte: 100%
Luftdruck: 1019 hPa
Zusammenfassung: flacher Nebel
Wolken: wolkig
Sicht: 10 km
2017/09/20 01:50 EDDE 200150Z 26008KT 9999 MIFG NSC 07/07 Q1019
EDDP - Leipzig/Schkeudidtz, Germany
Entfernung von Station: N 129km
Aktualisierung: 20.09.2017 03:50
Klar
Klar
 Wind von WSW
Wind: WSW 13 km/h
Temperatur: 8°C
Windkühle: 6°C
Taupunkt: 7°C
Luftfeuchte: 93%
Luftdruck: 1018 hPa
Zusammenfassung: Klar
Sicht: mehr als 10 km
2017/09/20 01:50 EDDP 200150Z 25007KT CAVOK 08/07 Q1018 NOSIG
 
EDDN - Nuernberg, Germany
Entfernung von Station: SW 130km
Aktualisierung: 20.09.2017 03:50
stark bewölkt
stark bewölkt
 Wind von O
Wind: O 2 km/h
Temperatur: 6°C
Taupunkt: 6°C
Luftfeuchte: 100%
Luftdruck: 1020 hPa
Wolken: stark bewölkt
Sicht: 10 km
Wolken Details: teils wolkig 945 m
stark bewölkt 2530 m
2017/09/20 01:50 EDDN 200150Z 09001KT 9999 FEW031 BKN083 06/06 Q1020
LKPR - Prague/Ruzyne, Czech Republic
Entfernung von Station: O 133km
Aktualisierung: 20.09.2017 03:30
Klar
Klar
 Wind von W
Wind: W 11 km/h
Temperatur: 8°C
Windkühle: 6°C
Taupunkt: 5°C
Luftfeuchte: 82%
Luftdruck: 1017 hPa
Zusammenfassung: Klar
Sicht: mehr als 10 km
2017/09/20 01:30 LKPR 200130Z 28006KT CAVOK 08/05 Q1017 NOSIG
 
EDDC - Dresden/Klotzsche, Germany
Entfernung von Station: NO 134km
Aktualisierung: 20.09.2017 03:50
Klar
Klar
 Wind von SW
Wind: SW 6 km/h
Temperatur: 9°C
Taupunkt: 7°C
Luftfeuchte: 87%
Luftdruck: 1018 hPa
Zusammenfassung: Klar
Sicht: mehr als 10 km
2017/09/20 01:50 EDDC 200150Z 23003KT CAVOK 09/07 Q1018
Besucherstatistik
Besucher gesamt: 763.163
Besucher heute: 215
Besucher gestern: 1.106
Besucher pro Tag: 882,43
gerade online: 21
max. online: 156
Seitenaufrufe diese Seite: 2.557
counter Statistiken